Skip Navigation Links Skip Navigation Links

Current Weather

Palm Beach Intl, West Palm Beach, Fla.

For information only: do not use for flight planning or navigation.
Latest weather
Observation time Friday, January 28, 2022 12:38 AM EST
Local time Friday, January 28, 2022 12:53 AM EST
Flight conditions Instrument Meteorological Conditions
Winds
Wind direction Northwest (320°)
Wind speed 8 mph
Visibility 10 mi.
Sky condition
Ceiling 600 ft. broken clouds
Cloud layer broken clouds 600 ft.
Temperature 62°F
Dewpoint 61°F
Altimeter 30.04 in.Hg
Derived measurements
Relative humidity 96%
Density altitude 334 ft.
Remarks
System requires maintenance.
Automated weather observing station with precipitation discriminator.
METAR KPBI 280538Z 32007KT 10SM BKN006 17/16 A3004 RMK AO2 T01670161 $

Settings

Location code

InnerDrive.Weather 4.0.6770.0 Release CLR 4.0.30319.42000
Copyright ©2018 Inner Drive Technology. All rights reserved. Portions Copyright ©1986-2018 David Braverman.

Find weather

Site navigation


Skip Navigation Links

Place info

Page info

PayPal - The safer, easier way to pay online!

Return home.

Copyright ©2022 Inner Drive Technology. Purveyors of fine, hand-crafted computer software. Page printed 2022-01-28T05:53:13 UTC.